Time;durP1;ratioP1;P1;durP2;ratioP2;P2;SDS_P1;SDS_P2;PMS_P1;PMS_P2;Temp;Humidity;BMP_temperature;BMP_pressure;BME280_temperature;BME280_humidity;BME280_pressure;Samples;Min_cycle;Max_cycle;Signal;HPM_P1;HPM_P2
2021/01/24 00:00:51;;;;;;;0.20;0.10;;;;;;;4.65;100.00;97758.72;4979623;28;20442;-53
2021/01/24 00:03:17;;;;;;;0.20;0.10;;;;;;;4.31;100.00;97760.25;4978840;28;20478;-53
2021/01/24 00:05:44;;;;;;;0.20;0.10;;;;;;;4.24;100.00;97756.16;4979203;28;20450;-53
2021/01/24 00:08:11;;;;;;;0.20;0.10;;;;;;;4.28;100.00;97749.88;4980158;28;20450;-53
2021/01/24 00:10:38;;;;;;;0.20;0.10;;;;;;;4.05;100.00;97765.78;4978275;28;20466;-53
2021/01/24 00:13:05;;;;;;;0.20;0.10;;;;;;;4.01;100.00;97762.44;4979472;28;20845;-57
2021/01/24 00:15:31;;;;;;;0.20;0.10;;;;;;;4.01;100.00;97762.44;4979641;28;20512;-53
2021/01/24 00:17:57;;;;;;;0.20;0.10;;;;;;;3.78;100.00;97770.44;4979735;28;20462;-53
2021/01/24 00:20:23;;;;;;;0.20;0.13;;;;;;;3.79;100.00;97765.13;4980408;28;20450;-53
2021/01/24 00:22:50;;;;;;;0.20;0.10;;;;;;;3.81;100.00;97771.16;4979501;28;20472;-53
2021/01/24 00:25:17;;;;;;;0.20;0.10;;;;;;;3.55;100.00;97774.84;4968066;28;21011;-53
2021/01/24 00:27:44;;;;;;;0.20;0.10;;;;;;;3.54;100.00;97772.28;4979465;28;20454;-53
2021/01/24 00:30:11;;;;;;;0.20;0.10;;;;;;;3.44;100.00;97771.00;4977841;28;20458;-54
2021/01/24 00:32:38;;;;;;;0.20;0.10;;;;;;;3.63;100.00;97765.81;4967319;28;20497;-53
2021/01/24 00:35:07;;;;;;;0.20;0.10;;;;;;;3.61;100.00;97770.28;4979144;28;20458;-53
2021/01/24 00:37:34;;;;;;;0.20;0.10;;;;;;;3.75;100.00;97774.06;4970203;28;20528;-60
2021/01/24 00:40:00;;;;;;;0.20;0.10;;;;;;;3.47;100.00;97776.09;4978889;28;20454;-53
2021/01/24 00:42:27;;;;;;;0.20;0.10;;;;;;;3.62;100.00;97772.00;4978936;28;20478;-54
2021/01/24 00:44:53;;;;;;;0.20;0.10;;;;;;;3.61;100.00;97776.41;4979268;28;20462;-53
2021/01/24 00:47:19;;;;;;;0.20;0.10;;;;;;;3.47;100.00;97784.84;4979474;28;20512;-55
2021/01/24 00:49:45;;;;;;;0.20;0.10;;;;;;;3.54;100.00;97788.06;4978917;28;20454;-52
2021/01/24 00:52:11;;;;;;;0.20;0.10;;;;;;;3.42;100.00;97784.16;4978793;28;20987;-56
2021/01/24 00:54:38;;;;;;;0.20;0.10;;;;;;;3.49;100.00;97782.16;4974654;28;20510;-53
2021/01/24 00:57:04;;;;;;;0.20;0.20;;;;;;;3.42;100.00;97786.78;4978194;28;20944;-53
2021/01/24 00:59:30;;;;;;;0.20;0.10;;;;;;;3.39;100.00;97791.31;4979188;28;20457;-53
2021/01/24 01:01:57;;;;;;;0.20;0.10;;;;;;;3.26;100.00;97786.53;4979102;28;20533;-53
2021/01/24 01:04:23;;;;;;;0.20;0.10;;;;;;;3.39;100.00;97783.44;4979052;28;20451;-60
2021/01/24 01:06:50;;;;;;;0.20;0.10;;;;;;;3.58;100.00;97786.19;4978882;28;20876;-53
2021/01/24 01:09:16;;;;;;;0.20;0.10;;;;;;;3.80;100.00;97784.34;4977335;28;20952;-58
2021/01/24 01:11:42;;;;;;;0.20;0.20;;;;;;;3.48;100.00;97786.53;4977636;28;20544;-53
2021/01/24 01:14:08;;;;;;;0.20;0.10;;;;;;;3.43;100.00;97780.63;4978083;28;20462;-53
2021/01/24 01:16:35;;;;;;;0.20;0.10;;;;;;;3.36;100.00;97794.06;4978231;28;20461;-53
2021/01/24 01:19:02;;;;;;;0.20;0.10;;;;;;;3.36;100.00;97794.91;4978326;28;20501;-53
2021/01/24 01:21:28;;;;;;;0.20;0.10;;;;;;;3.40;100.00;97793.00;4977788;28;21003;-53
2021/01/24 01:23:54;;;;;;;0.20;0.10;;;;;;;3.90;100.00;97795.34;4977350;28;20860;-53
2021/01/24 01:26:20;;;;;;;0.20;0.10;;;;;;;3.71;100.00;97798.75;4967512;28;20462;-52
2021/01/24 01:28:46;;;;;;;0.20;0.10;;;;;;;3.63;100.00;97794.72;4977862;28;20451;-56
2021/01/24 01:31:12;;;;;;;0.20;0.10;;;;;;;3.71;100.00;97798.75;4968728;28;20980;-52
2021/01/24 01:33:38;;;;;;;0.20;0.20;;;;;;;3.83;100.00;97803.47;4974619;28;20486;-53
2021/01/24 01:36:05;;;;;;;0.20;0.10;;;;;;;3.80;100.00;97811.47;4974503;28;20835;-59
2021/01/24 01:38:31;;;;;;;0.20;0.10;;;;;;;3.52;100.00;97813.53;4974961;28;20483;-53
2021/01/24 01:43:53;;;;;;;0.20;0.10;;;;;;;3.59;100.00;97824.66;5000261;28;20464;-53
2021/01/24 01:46:22;;;;;;;0.20;0.10;;;;;;;3.62;100.00;97814.88;5013799;28;20467;-53
2021/01/24 01:48:50;;;;;;;0.20;0.10;;;;;;;3.57;100.00;97814.22;5013966;28;20528;-53
2021/01/24 01:51:16;;;;;;;0.20;0.10;;;;;;;3.85;100.00;97825.31;5013617;28;20542;-53
2021/01/24 01:53:44;;;;;;;0.20;0.10;;;;;;;3.70;100.00;97823.31;5013754;28;20492;-54
2021/01/24 01:56:11;;;;;;;0.20;0.10;;;;;;;3.68;100.00;97829.50;5010058;28;20452;-53
2021/01/24 01:58:37;;;;;;;0.20;0.10;;;;;;;3.75;100.00;97831.00;5013796;28;20460;-54
2021/01/24 02:01:12;;;;;;;0.20;0.10;;;;;;;3.69;100.00;97829.44;5013652;28;20453;-54
2021/01/24 02:04:07;;;;;;;0.20;0.20;;;;;;;3.54;100.00;97833.56;5013712;28;20855;-53
2021/01/24 02:06:41;;;;;;;0.20;0.10;;;;;;;3.67;100.00;97827.81;5013456;28;20448;-53
2021/01/24 02:09:13;;;;;;;0.20;0.20;;;;;;;3.77;100.00;97839.66;5012910;28;20448;-55
2021/01/24 02:11:51;;;;;;;0.20;0.10;;;;;;;3.65;100.00;97848.88;5013401;28;20468;-54
2021/01/24 02:14:28;;;;;;;0.20;0.10;;;;;;;3.81;100.00;97844.72;5013238;28;20452;-54
2021/01/24 02:16:57;;;;;;;0.20;0.10;;;;;;;3.59;100.00;97846.53;5013653;28;20510;-54
2021/01/24 02:19:38;;;;;;;0.20;0.10;;;;;;;3.80;100.00;97845.63;5013519;28;20479;-55
2021/01/24 02:22:06;;;;;;;0.20;0.10;;;;;;;3.80;100.00;97861.41;5013330;28;20500;-55
2021/01/24 02:24:38;;;;;;;0.20;0.10;;;;;;;3.74;100.00;97860.81;5007663;28;20449;-54
2021/01/24 02:27:31;;;;;;;0.20;0.10;;;;;;;3.78;100.00;97863.25;5009835;28;20499;-55
2021/01/24 02:30:10;;;;;;;0.20;0.10;;;;;;;3.72;100.00;97866.13;5013124;28;20449;-54
2021/01/24 02:32:38;;;;;;;0.20;0.10;;;;;;;3.58;100.00;97872.84;4989712;28;20502;-55
2021/01/24 02:35:05;;;;;;;0.20;0.10;;;;;;;3.68;100.00;97877.66;5012927;28;20444;-55
2021/01/24 02:37:32;;;;;;;0.20;0.10;;;;;;;3.64;100.00;97881.31;5005908;28;20466;-54
2021/01/24 02:40:02;;;;;;;0.20;0.10;;;;;;;3.64;100.00;97886.56;5013144;28;20824;-55
2021/01/24 02:42:30;;;;;;;0.20;0.10;;;;;;;3.66;100.00;97892.63;5012856;28;20481;-54
2021/01/24 02:44:58;;;;;;;0.20;0.10;;;;;;;3.70;100.00;97896.84;5012861;28;20448;-54
2021/01/24 02:47:25;;;;;;;0.20;0.10;;;;;;;3.67;100.00;97906.59;5012871;28;20487;-54
2021/01/24 02:49:53;;;;;;;0.20;0.20;;;;;;;3.51;100.00;97922.13;5012804;28;20543;-55
2021/01/24 02:52:20;;;;;;;0.20;0.10;;;;;;;3.61;100.00;97915.59;5012718;28;20922;-55
2021/01/24 02:54:47;;;;;;;0.20;0.10;;;;;;;3.62;100.00;97919.94;5008613;28;20453;-54
2021/01/24 02:57:13;;;;;;;0.20;0.10;;;;;;;3.61;100.00;97935.75;5013038;28;20448;-54
2021/01/24 02:59:40;;;;;;;0.20;0.10;;;;;;;3.57;100.00;97932.41;5012638;28;20461;-55
2021/01/24 03:02:07;;;;;;;0.20;0.10;;;;;;;3.51;100.00;97932.63;5012665;28;20468;-54
2021/01/24 03:04:33;;;;;;;0.20;0.10;;;;;;;3.41;100.00;97941.75;5012514;28;20457;-55
2021/01/24 03:07:00;;;;;;;0.20;0.10;;;;;;;3.27;100.00;97952.75;5012901;28;20448;-54
2021/01/24 03:09:26;;;;;;;0.20;0.10;;;;;;;3.41;100.00;97953.09;5012497;28;20456;-54
2021/01/24 03:11:54;;;;;;;0.20;0.10;;;;;;;3.35;100.00;97957.75;5012653;28;20473;-54
2021/01/24 03:14:27;;;;;;;0.20;0.10;;;;;;;3.27;100.00;97973.75;5012559;28;20448;-55
2021/01/24 03:16:58;;;;;;;0.20;0.10;;;;;;;3.20;100.00;97977.53;5012609;28;20938;-55
2021/01/24 03:19:27;;;;;;;0.20;0.10;;;;;;;3.11;100.00;97986.59;5009358;28;20446;-55
2021/01/24 03:21:55;;;;;;;0.20;0.10;;;;;;;3.24;100.00;97992.25;5009314;28;20969;-55
2021/01/24 03:24:25;;;;;;;0.20;0.10;;;;;;;3.24;100.00;97993.13;5012592;28;20460;-54
2021/01/24 03:26:51;;;;;;;0.20;0.10;;;;;;;3.31;100.00;97998.16;5010044;28;21012;-54
2021/01/24 03:29:19;;;;;;;0.20;0.10;;;;;;;3.02;100.00;98001.84;5016401;28;20456;-54
2021/01/24 03:31:46;;;;;;;0.20;0.10;;;;;;;3.11;100.00;98010.22;5016530;28;20518;-54
2021/01/24 03:34:22;;;;;;;0.20;0.10;;;;;;;3.18;100.00;98003.84;5016373;28;21000;-54
2021/01/24 03:36:50;;;;;;;0.20;0.10;;;;;;;3.10;100.00;98013.75;5008603;28;20511;-55
2021/01/24 03:39:17;;;;;;;0.30;0.20;;;;;;;3.15;100.00;98017.09;5016423;28;20510;-54
2021/01/24 03:41:44;;;;;;;0.20;0.10;;;;;;;3.09;100.00;98013.81;5015893;28;20495;-54
2021/01/24 03:44:11;;;;;;;0.20;0.10;;;;;;;2.96;100.00;98016.00;5016471;28;20879;-54
2021/01/24 03:46:37;;;;;;;0.20;0.10;;;;;;;3.05;100.00;98028.81;5016327;28;20460;-55
2021/01/24 03:49:05;;;;;;;0.20;0.10;;;;;;;3.09;100.00;98029.56;5005403;28;20480;-53
2021/01/24 03:51:42;;;;;;;0.20;0.10;;;;;;;2.94;100.00;98029.19;5007736;28;20468;-54
2021/01/24 03:54:09;;;;;;;0.20;0.10;;;;;;;3.01;100.00;98028.94;5013498;28;20499;-54
2021/01/24 03:56:35;;;;;;;0.20;0.10;;;;;;;3.13;100.00;98037.25;5013794;28;20456;-55
2021/01/24 03:59:01;;;;;;;0.20;0.10;;;;;;;3.15;100.00;98030.22;5016121;28;20452;-54
2021/01/24 04:01:29;;;;;;;0.20;0.10;;;;;;;3.06;100.00;98035.78;5016076;28;20530;-54
2021/01/24 04:03:56;;;;;;;0.20;0.10;;;;;;;3.08;100.00;98031.31;4998422;28;20854;-52
2021/01/24 04:06:22;;;;;;;0.20;0.10;;;;;;;2.98;100.00;98037.78;5015810;28;20456;-53
2021/01/24 04:08:49;;;;;;;0.20;0.10;;;;;;;3.03;100.00;98035.88;5015962;28;20501;-54
2021/01/24 04:11:16;;;;;;;0.20;0.10;;;;;;;3.16;100.00;98037.19;5015484;28;20546;-54
2021/01/24 04:13:43;;;;;;;0.20;0.10;;;;;;;3.02;100.00;98049.06;5015801;28;20488;-54
2021/01/24 04:16:13;;;;;;;0.20;0.10;;;;;;;3.21;100.00;98045.72;5015311;28;20941;-53
2021/01/24 04:18:41;;;;;;;0.20;0.10;;;;;;;3.04;100.00;98055.09;5015200;28;20444;-54
2021/01/24 04:21:07;;;;;;;0.20;0.10;;;;;;;2.97;100.00;98050.06;5015191;28;20452;-53
2021/01/24 04:23:33;;;;;;;0.20;0.10;;;;;;;2.88;100.00;98055.63;5015444;28;20926;-53
2021/01/24 04:25:59;;;;;;;0.20;0.10;;;;;;;2.99;100.00;98063.13;5003621;28;20449;-53
2021/01/24 04:28:26;;;;;;;0.20;0.10;;;;;;;3.09;100.00;98059.28;5015277;28;20502;-54
2021/01/24 04:30:52;;;;;;;0.20;0.10;;;;;;;3.03;100.00;98061.28;5014313;28;20491;-54
2021/01/24 04:33:19;;;;;;;0.20;0.10;;;;;;;2.93;100.00;98066.81;5014867;28;20527;-54
2021/01/24 04:35:45;;;;;;;0.20;0.10;;;;;;;3.06;100.00;98067.25;5013930;28;20460;-53
2021/01/24 04:38:11;;;;;;;0.20;0.10;;;;;;;3.04;100.00;98071.72;5009270;28;20937;-53
2021/01/24 04:40:37;;;;;;;0.20;0.10;;;;;;;2.87;100.00;98076.66;5015175;28;20488;-54
2021/01/24 04:43:04;;;;;;;0.20;0.20;;;;;;;3.06;100.00;98082.16;5014722;28;20476;-54
2021/01/24 04:45:31;;;;;;;0.20;0.10;;;;;;;2.91;100.00;98079.13;5014956;28;20460;-52
2021/01/24 04:47:57;;;;;;;0.20;0.20;;;;;;;2.95;100.00;98075.50;5014779;28;20949;-54
2021/01/24 04:50:26;;;;;;;0.20;0.10;;;;;;;2.89;100.00;98082.72;5014949;28;20460;-53
2021/01/24 04:52:52;;;;;;;0.20;0.10;;;;;;;2.90;100.00;98081.81;5014547;28;20985;-53
2021/01/24 04:55:18;;;;;;;0.20;0.10;;;;;;;2.77;100.00;98083.13;5011556;28;20495;-54
2021/01/24 04:57:46;;;;;;;0.20;0.10;;;;;;;2.84;100.00;98087.25;5014801;28;20456;-53
2021/01/24 05:00:12;;;;;;;0.20;0.10;;;;;;;2.79;100.00;98089.19;5014967;28;20526;-54
2021/01/24 05:02:39;;;;;;;0.20;0.10;;;;;;;2.82;100.00;98104.81;5014733;28;20519;-53
2021/01/24 05:05:06;;;;;;;0.20;0.10;;;;;;;2.93;100.00;98092.19;5014512;28;20510;-54
2021/01/24 05:07:33;;;;;;;0.20;0.10;;;;;;;2.94;100.00;98099.16;5014443;28;20455;-54
2021/01/24 05:09:59;;;;;;;0.20;0.20;;;;;;;2.81;100.00;98108.34;4997389;28;20444;-54
2021/01/24 05:12:28;;;;;;;0.20;0.10;;;;;;;2.91;100.00;98100.13;5014278;28;20510;-54
2021/01/24 05:14:58;;;;;;;0.20;0.10;;;;;;;2.82;100.00;98121.41;5014545;28;20463;-54
2021/01/24 05:17:25;;;;;;;0.20;0.10;;;;;;;2.75;100.00;98112.03;5013972;28;20454;-53
2021/01/24 05:19:52;;;;;;;0.20;0.10;;;;;;;2.75;100.00;98112.03;5014222;28;20449;-53
2021/01/24 05:22:18;;;;;;;0.20;0.10;;;;;;;2.67;100.00;98117.50;5014285;28;20483;-53
2021/01/24 05:24:46;;;;;;;0.20;0.10;;;;;;;2.80;100.00;98128.47;5007271;28;20457;-54
2021/01/24 05:27:13;;;;;;;0.20;0.10;;;;;;;2.84;100.00;98123.97;5010578;28;20449;-55
2021/01/24 05:29:43;;;;;;;0.20;0.10;;;;;;;2.86;100.00;98132.66;5014201;28;20488;-54
2021/01/24 05:32:11;;;;;;;0.20;0.10;;;;;;;2.79;100.00;98133.78;5013837;28;20465;-53
2021/01/24 05:34:38;;;;;;;0.20;0.10;;;;;;;2.73;100.00;98137.44;5014047;28;20785;-53
2021/01/24 05:37:04;;;;;;;0.20;0.10;;;;;;;2.76;100.00;98133.88;5006589;28;20491;-53
2021/01/24 05:39:32;;;;;;;0.20;0.10;;;;;;;2.68;100.00;98148.06;5013926;28;21019;-52
2021/01/24 05:42:00;;;;;;;0.20;0.10;;;;;;;2.56;100.00;98151.06;5013586;28;20481;-51
2021/01/24 05:44:28;;;;;;;0.60;0.60;;;;;;;2.67;100.00;98158.63;5014038;28;20867;-56
2021/01/24 05:47:00;;;;;;;0.20;0.10;;;;;;;2.62;100.00;98160.53;5013752;28;20914;-53
2021/01/24 05:49:32;;;;;;;0.20;0.10;;;;;;;2.59;100.00;98171.97;5013815;28;20503;-52
2021/01/24 05:52:08;;;;;;;1.03;0.80;;;;;;;2.52;100.00;98173.06;5013766;28;20469;-53
2021/01/24 05:54:46;;;;;;;0.20;0.10;;;;;;;2.54;100.00;98178.25;5010135;28;20493;-52
2021/01/24 05:57:14;;;;;;;0.20;0.10;;;;;;;2.52;100.00;98174.81;5013243;28;20453;-53
2021/01/24 05:59:55;;;;;;;0.20;0.10;;;;;;;2.45;100.00;98171.53;5013730;28;20871;-53
2021/01/24 06:02:24;;;;;;;0.20;0.10;;;;;;;2.33;100.00;98182.38;5013639;28;20519;-52
2021/01/24 06:04:51;;;;;;;0.20;0.10;;;;;;;2.48;100.00;98192.44;5013491;28;20510;-53
2021/01/24 06:07:19;;;;;;;0.20;0.10;;;;;;;2.59;100.00;98197.31;5013536;28;20452;-53
2021/01/24 06:09:46;;;;;;;0.20;0.10;;;;;;;2.57;100.00;98202.63;4987844;28;20868;-54
2021/01/24 06:12:15;;;;;;;0.20;0.10;;;;;;;2.51;100.00;98204.56;5013388;28;20475;-53
2021/01/24 06:14:50;;;;;;;0.20;0.10;;;;;;;2.49;100.00;98212.50;5013325;28;20441;-53
2021/01/24 06:17:37;;;;;;;0.20;0.10;;;;;;;2.53;100.00;98200.16;5013169;28;20444;-53
2021/01/24 06:20:08;;;;;;;0.20;0.10;;;;;;;2.60;100.00;98212.16;5013108;28;20959;-53
2021/01/24 06:22:56;;;;;;;0.20;0.10;;;;;;;2.53;100.00;98219.34;5012752;28;20846;-53
2021/01/24 06:25:33;;;;;;;0.20;0.10;;;;;;;2.50;100.00;98229.09;5002915;28;20866;-54
2021/01/24 06:28:16;;;;;;;0.20;0.10;;;;;;;2.46;100.00;98222.19;5013136;28;20456;-53
2021/01/24 06:30:45;;;;;;;0.20;0.10;;;;;;;2.33;100.00;98233.06;5012994;28;20437;-53
2021/01/24 06:33:20;;;;;;;0.20;0.10;;;;;;;2.51;100.00;98236.03;5012895;28;20946;-53
2021/01/24 06:35:56;;;;;;;0.20;0.10;;;;;;;2.30;100.00;98246.22;4986989;28;20452;-53
2021/01/24 06:38:37;;;;;;;0.20;0.10;;;;;;;2.35;100.00;98240.88;5008485;28;20494;-53
2021/01/24 06:41:05;;;;;;;0.20;0.10;;;;;;;2.32;100.00;98248.81;5012741;28;20515;-54
2021/01/24 06:43:41;;;;;;;0.30;0.20;;;;;;;2.22;100.00;98260.47;4995429;28;20449;-54
2021/01/24 06:46:30;;;;;;;0.20;0.10;;;;;;;2.21;100.00;98254.38;5012870;28;20448;-54
2021/01/24 06:48:57;;;;;;;0.20;0.10;;;;;;;2.33;100.00;98261.00;5004721;28;20456;-54
2021/01/24 06:51:32;;;;;;;0.20;0.10;;;;;;;2.46;100.00;98261.50;5012327;28;20884;-53
2021/01/24 06:54:00;;;;;;;0.20;0.10;;;;;;;2.37;100.00;98254.78;5011485;28;20491;-53
2021/01/24 06:56:39;;;;;;;0.20;0.10;;;;;;;2.25;100.00;98270.88;5009101;28;21015;-54
2021/01/24 06:59:06;;;;;;;0.20;0.10;;;;;;;2.41;100.00;98272.16;5013047;28;20453;-54
2021/01/24 07:01:34;;;;;;;0.20;0.10;;;;;;;2.24;100.00;98275.25;5012377;28;20476;-53
2021/01/24 07:04:39;;;;;;;0.20;0.10;;;;;;;2.42;100.00;98288.72;5012765;28;20445;-54
2021/01/24 07:07:28;;;;;;;0.20;0.10;;;;;;;2.31;100.00;98289.88;4943404;29;20753;-54
2021/01/24 07:09:54;;;;;;;0.20;0.10;;;;;;;2.09;100.00;98291.38;4944592;29;20506;-53
2021/01/24 07:12:42;;;;;;;0.20;0.10;;;;;;;2.08;100.00;98292.28;4978040;28;20466;-53
2021/01/24 07:15:11;;;;;;;0.20;0.10;;;;;;;2.09;100.00;98296.63;5012518;28;20845;-54
2021/01/24 07:17:37;;;;;;;0.20;0.10;;;;;;;2.18;100.00;98298.97;5012715;28;20440;-54
2021/01/24 07:20:06;;;;;;;0.20;0.10;;;;;;;1.99;100.00;98305.63;5012535;28;20462;-54
2021/01/24 07:22:32;;;;;;;0.20;0.10;;;;;;;2.00;100.00;98310.81;5012163;28;20469;-54
2021/01/24 07:24:58;;;;;;;0.20;0.10;;;;;;;2.01;100.00;98312.53;5003545;28;20456;-54
2021/01/24 07:27:29;;;;;;;0.20;0.10;;;;;;;1.96;100.00;98322.28;5010532;28;20994;-53
2021/01/24 07:29:56;;;;;;;0.20;0.10;;;;;;;1.95;100.00;98322.34;5012585;28;20453;-54
2021/01/24 07:32:24;;;;;;;0.20;0.10;;;;;;;2.00;100.00;98331.78;5012099;28;20471;-53
2021/01/24 07:34:52;;;;;;;0.20;0.10;;;;;;;2.00;100.00;98328.31;5012599;28;20502;-53
2021/01/24 07:37:19;;;;;;;0.20;0.10;;;;;;;1.90;100.00;98339.91;5004645;28;20522;-54
2021/01/24 07:39:47;;;;;;;0.20;0.10;;;;;;;1.83;100.00;98331.34;5012159;28;20449;-53
2021/01/24 07:42:14;;;;;;;0.20;0.17;;;;;;;1.99;100.00;98337.06;5012607;28;20488;-53
2021/01/24 07:44:41;;;;;;;0.20;0.10;;;;;;;1.94;100.00;98336.34;5012016;28;20451;-54
2021/01/24 07:47:10;;;;;;;0.20;0.10;;;;;;;1.96;100.00;98343.25;5011945;28;20511;-54
2021/01/24 07:49:37;;;;;;;0.20;0.10;;;;;;;1.91;100.00;98344.25;5011930;28;20531;-53
2021/01/24 07:52:05;;;;;;;0.20;0.10;;;;;;;1.88;100.00;98355.66;5012496;28;20472;-54
2021/01/24 07:54:32;;;;;;;0.20;0.10;;;;;;;1.95;100.00;98354.63;5008689;28;20497;-54
2021/01/24 07:56:58;;;;;;;0.20;0.17;;;;;;;1.93;100.00;98351.19;5012371;28;20506;-54
2021/01/24 07:59:24;;;;;;;0.20;0.10;;;;;;;2.03;100.00;98360.50;5012131;28;20452;-54
2021/01/24 08:01:52;;;;;;;0.20;0.10;;;;;;;2.11;100.00;98357.72;5012093;28;20469;-53
2021/01/24 08:04:22;;;;;;;0.20;0.10;;;;;;;2.02;100.00;98363.19;5012128;28;20476;-53
2021/01/24 08:06:49;;;;;;;0.20;0.10;;;;;;;2.23;100.00;98357.41;5014577;28;20459;-53
2021/01/24 08:09:16;;;;;;;0.20;0.10;;;;;;;2.28;100.00;98370.38;5015631;28;20456;-54
2021/01/24 08:11:42;;;;;;;0.20;0.10;;;;;;;2.07;100.00;98371.81;5015495;28;20989;-53
2021/01/24 08:14:08;;;;;;;0.20;0.10;;;;;;;2.18;100.00;98380.22;5015338;28;20559;-54
2021/01/24 08:16:37;;;;;;;0.20;0.10;;;;;;;2.23;100.00;98390.59;5015411;28;20475;-54
2021/01/24 08:19:06;;;;;;;0.20;0.10;;;;;;;2.34;100.00;98385.94;5015289;28;21041;-54
2021/01/24 08:21:33;;;;;;;0.20;0.10;;;;;;;2.28;100.00;98388.72;5015758;28;20468;-53
2021/01/24 08:24:05;;;;;;;0.20;0.10;;;;;;;2.39;100.00;98389.31;5015194;28;20526;-53
2021/01/24 08:26:31;;;;;;;0.20;0.10;;;;;;;2.48;100.00;98393.44;5007380;28;20820;-52
2021/01/24 08:28:59;;;;;;;0.20;0.10;;;;;;;2.46;100.00;98398.72;5015556;28;20448;-53
2021/01/24 08:31:27;;;;;;;0.20;0.10;;;;;;;2.39;100.00;98399.78;5015158;28;20472;-52
2021/01/24 08:33:55;;;;;;;0.20;0.10;;;;;;;2.47;100.00;98397.84;5015470;28;20496;-51
2021/01/24 08:36:25;;;;;;;0.20;0.10;;;;;;;2.50;100.00;98407.38;5009293;28;20900;-53
2021/01/24 08:38:56;;;;;;;0.20;0.10;;;;;;;2.53;100.00;98402.03;5014993;28;20449;-53
2021/01/24 08:41:49;;;;;;;0.20;0.10;;;;;;;2.52;100.00;98406.44;5014993;28;20832;-52
2021/01/24 08:44:15;;;;;;;0.20;0.10;;;;;;;2.38;100.00;98414.66;4993882;28;20871;-53
2021/01/24 08:46:49;;;;;;;0.20;0.10;;;;;;;2.58;100.00;98416.75;5015757;28;20848;-54
2021/01/24 08:49:30;;;;;;;0.20;0.10;;;;;;;2.51;100.00;98419.59;5015309;28;20452;-53
2021/01/24 08:51:58;;;;;;;0.20;0.10;;;;;;;2.64;100.00;98421.84;5015359;28;20464;-52
2021/01/24 08:54:33;;;;;;;0.20;0.10;;;;;;;2.51;100.00;98425.69;5011189;28;20575;-53
2021/01/24 08:57:33;;;;;;;0.20;0.10;;;;;;;2.60;100.00;98435.94;5015143;28;20498;-52
2021/01/24 09:00:01;;;;;;;0.20;0.10;;;;;;;2.78;100.00;98436.34;4993363;28;20507;-53
2021/01/24 09:02:30;;;;;;;0.20;0.10;;;;;;;2.72;100.00;98441.75;5014459;28;20985;-55
2021/01/24 09:04:57;;;;;;;0.20;0.10;;;;;;;2.88;100.00;98451.81;5014586;28;20842;-54
2021/01/24 09:07:23;;;;;;;0.20;0.10;;;;;;;2.88;100.00;98450.94;5014556;28;20503;-54
2021/01/24 09:09:53;;;;;;;0.20;0.10;;;;;;;2.83;100.00;98451.03;5014703;28;21007;-54
2021/01/24 09:12:20;;;;;;;0.20;0.10;;;;;;;2.90;100.00;98447.38;5014333;28;20465;-54
2021/01/24 09:14:48;;;;;;;0.20;0.10;;;;;;;2.84;100.00;98457.16;5014549;28;20515;-54
2021/01/24 09:17:17;;;;;;;0.20;0.10;;;;;;;2.96;100.00;98465.56;5013835;28;20579;-54
2021/01/24 09:19:45;;;;;;;0.20;0.10;;;;;;;3.00;100.00;98461.06;5014576;28;20531;-54
2021/01/24 09:22:16;;;;;;;0.20;0.10;;;;;;;3.05;100.00;98464.44;4996910;28;20469;-53
2021/01/24 09:24:43;;;;;;;0.20;0.10;;;;;;;3.06;100.00;98474.03;5007924;28;20503;-53
2021/01/24 09:27:11;;;;;;;0.20;0.10;;;;;;;3.03;100.00;98475.91;5010463;28;20530;-54
2021/01/24 09:29:40;;;;;;;0.20;0.10;;;;;;;3.09;100.00;98473.94;5014132;28;20945;-54
2021/01/24 09:32:07;;;;;;;0.20;0.10;;;;;;;3.19;100.00;98480.66;5014361;28;20973;-54
2021/01/24 09:34:34;;;;;;;0.20;0.10;;;;;;;3.18;100.00;98493.84;5014025;28;20492;-53
2021/01/24 09:37:00;;;;;;;0.20;0.10;;;;;;;3.14;100.00;98500.06;5006311;28;20456;-54
2021/01/24 09:39:26;;;;;;;0.20;0.10;;;;;;;3.13;100.00;98503.59;5014195;28;20891;-54
2021/01/24 09:41:53;;;;;;;0.20;0.10;;;;;;;3.10;100.00;98512.41;5013664;28;20549;-53
2021/01/24 09:44:20;;;;;;;0.20;0.10;;;;;;;3.21;100.00;98514.75;5013634;28;21025;-54
2021/01/24 09:46:46;;;;;;;0.20;0.10;;;;;;;3.17;100.00;98513.97;5013970;28;20453;-54
2021/01/24 09:49:13;;;;;;;0.20;0.10;;;;;;;3.06;100.00;98523.91;5013687;28;20804;-54
2021/01/24 09:51:40;;;;;;;0.20;0.10;;;;;;;3.12;100.00;98536.00;5013473;28;20953;-52
2021/01/24 09:54:06;;;;;;;0.20;0.10;;;;;;;3.14;100.00;98535.03;5004278;28;20547;-54
2021/01/24 09:56:33;;;;;;;0.20;0.10;;;;;;;3.23;100.00;98545.28;4994239;28;20450;-54
2021/01/24 09:58:59;;;;;;;0.20;0.10;;;;;;;3.24;100.00;98544.41;4994138;28;20457;-54
2021/01/24 10:01:25;;;;;;;0.30;0.10;;;;;;;3.32;100.00;98551.22;4994114;28;20473;-53
2021/01/24 10:03:52;;;;;;;0.20;0.10;;;;;;;3.20;100.00;98552.41;4993904;28;20449;-54
2021/01/24 10:06:20;;;;;;;0.50;0.50;;;;;;;3.24;100.00;98560.16;4993592;28;20508;-54
2021/01/24 10:08:47;;;;;;;0.20;0.10;;;;;;;3.17;100.00;98561.22;4993950;28;20879;-53
2021/01/24 10:11:13;;;;;;;0.20;0.10;;;;;;;3.28;100.00;98569.66;4993889;28;20458;-52
2021/01/24 10:13:41;;;;;;;0.60;0.60;;;;;;;3.37;100.00;98567.69;4994146;28;20496;-54
2021/01/24 10:16:07;;;;;;;0.20;0.10;;;;;;;3.20;100.00;98568.16;4994186;28;20528;-54
2021/01/24 10:18:34;;;;;;;0.20;0.10;;;;;;;3.31;100.00;98571.34;4993477;28;20454;-54
2021/01/24 10:21:00;;;;;;;0.20;0.10;;;;;;;3.32;100.00;98574.84;4993841;28;20508;-54
2021/01/24 10:23:26;;;;;;;0.20;0.10;;;;;;;3.33;100.00;98585.31;4993670;28;20476;-54
2021/01/24 10:25:56;;;;;;;0.20;0.10;;;;;;;3.53;100.00;98582.13;4993297;28;20450;-52
2021/01/24 10:28:26;;;;;;;0.20;0.10;;;;;;;3.37;100.00;98594.81;4993087;28;20877;-52
2021/01/24 10:30:53;;;;;;;0.20;0.10;;;;;;;3.37;100.00;98592.19;4987975;28;20445;-52
2021/01/24 10:33:20;;;;;;;0.20;0.10;;;;;;;3.47;100.00;98600.69;4998970;28;20493;-54
2021/01/24 10:35:47;;;;;;;0.20;0.10;;;;;;;3.34;100.00;98596.66;4993578;28;20524;-54
2021/01/24 10:38:14;;;;;;;0.20;0.10;;;;;;;3.41;100.00;98600.84;4993106;28;20449;-53
2021/01/24 10:40:41;;;;;;;0.20;0.10;;;;;;;3.40;100.00;98607.84;4993593;28;20563;-55
2021/01/24 10:43:07;;;;;;;0.20;0.10;;;;;;;3.48;100.00;98610.28;4992852;28;20474;-54
2021/01/24 10:45:34;;;;;;;0.20;0.10;;;;;;;3.35;100.00;98601.00;4993468;28;20453;-55
2021/01/24 10:48:02;;;;;;;0.20;0.10;;;;;;;3.59;100.00;98604.75;4993513;28;20508;-54
2021/01/24 10:50:30;;;;;;;0.20;0.10;;;;;;;3.50;100.00;98609.34;4993139;28;20449;-56
2021/01/24 10:52:56;;;;;;;0.20;0.10;;;;;;;3.54;100.00;98618.84;4993239;28;20473;-54
2021/01/24 10:55:24;;;;;;;0.20;0.10;;;;;;;3.52;100.00;98625.03;4993292;28;20520;-55
2021/01/24 10:57:50;;;;;;;0.20;0.10;;;;;;;3.69;100.00;98622.81;4993014;28;20457;-54
2021/01/24 11:00:17;;;;;;;0.20;0.10;;;;;;;3.63;100.00;98625.63;4993110;28;20462;-55
2021/01/24 11:02:43;;;;;;;0.20;0.10;;;;;;;3.52;100.00;98623.28;4992916;28;20985;-55
2021/01/24 11:05:10;;;;;;;0.20;0.10;;;;;;;3.51;100.00;98632.06;4993020;28;20450;-54
2021/01/24 11:07:37;;;;;;;0.20;0.10;;;;;;;3.61;100.00;98629.19;4992729;28;20453;-54
2021/01/24 11:10:05;;;;;;;0.20;0.20;;;;;;;3.47;100.00;98626.94;4992762;28;20449;-55
2021/01/24 11:12:31;;;;;;;0.20;0.10;;;;;;;3.51;100.00;98631.22;4992986;28;20477;-55
2021/01/24 11:14:57;;;;;;;0.20;0.10;;;;;;;3.47;100.00;98629.56;4993233;28;20547;-54
2021/01/24 11:17:23;;;;;;;0.20;0.10;;;;;;;3.40;100.00;98633.25;4992735;28;20485;-54
2021/01/24 11:19:52;;;;;;;0.20;0.10;;;;;;;3.60;100.00;98641.47;4992663;28;20476;-54
2021/01/24 11:22:20;;;;;;;0.20;0.10;;;;;;;3.53;100.00;98642.53;4992898;28;20473;-54
2021/01/24 11:24:46;;;;;;;0.20;0.10;;;;;;;3.48;100.00;98644.44;4992975;28;20946;-54
2021/01/24 11:27:13;;;;;;;0.20;0.10;;;;;;;3.53;100.00;98642.53;4993040;28;20515;-48
2021/01/24 11:29:42;;;;;;;0.30;0.20;;;;;;;3.59;100.00;98655.50;4992937;28;20460;-49
2021/01/24 11:32:09;;;;;;;0.20;0.10;;;;;;;3.69;100.00;98656.97;5006060;28;20469;-48
2021/01/24 11:34:37;;;;;;;0.20;0.10;;;;;;;3.70;100.00;98658.72;4992697;28;20986;-48
2021/01/24 11:37:04;;;;;;;0.20;0.10;;;;;;;3.76;99.99;98666.41;4982730;28;20467;-48
2021/01/24 11:39:30;;;;;;;0.20;0.10;;;;;;;3.62;98.67;98676.44;4976113;28;20461;-48
2021/01/24 11:41:56;;;;;;;0.20;0.10;;;;;;;3.80;99.13;98670.69;4996827;28;20912;-48
2021/01/24 11:44:25;;;;;;;0.20;0.10;;;;;;;3.78;99.45;98680.38;4996629;28;20519;-48